createdAt,value
2023-04-23T00:01:06.750Z,13.23
2023-04-23T00:03:34.506Z,13.21
2023-04-23T00:06:07.835Z,13.18
2023-04-23T00:08:34.623Z,13.18
2023-04-23T00:11:02.099Z,13.15
2023-04-23T00:13:29.153Z,13.14
2023-04-23T00:15:55.911Z,13.06
2023-04-23T00:18:22.350Z,13.16
2023-04-23T00:20:48.832Z,13.18
2023-04-23T00:23:15.349Z,13.12
2023-04-23T00:25:41.790Z,13.10
2023-04-23T00:28:08.214Z,13.12
2023-04-23T00:30:34.671Z,13.13
2023-04-23T00:33:01.249Z,13.05
2023-04-23T00:35:27.876Z,12.94
2023-04-23T00:37:54.321Z,12.90
2023-04-23T00:40:21.136Z,12.95
2023-04-23T00:42:49.157Z,12.89
2023-04-23T00:45:16.205Z,12.91
2023-04-23T00:47:43.452Z,12.86
2023-04-23T00:50:10.073Z,12.92
2023-04-23T00:52:39.151Z,12.91
2023-04-23T00:55:06.615Z,12.80
2023-04-23T00:57:33.494Z,12.86
2023-04-23T01:00:00.499Z,12.83
2023-04-23T01:02:28.480Z,12.76
2023-04-23T01:04:55.660Z,12.75
2023-04-23T01:07:22.856Z,12.72
2023-04-23T01:09:50.570Z,12.54
2023-04-23T01:12:17.584Z,12.73
2023-04-23T01:14:44.284Z,12.65
2023-04-23T01:17:12.218Z,12.76
2023-04-23T01:19:39.447Z,12.69
2023-04-23T01:22:11.122Z,12.67
2023-04-23T01:24:38.477Z,12.69
2023-04-23T01:27:06.129Z,12.66
2023-04-23T01:29:33.006Z,12.85
2023-04-23T01:32:00.004Z,12.86
2023-04-23T01:34:26.453Z,12.75
2023-04-23T01:36:54.378Z,12.85
2023-04-23T01:39:20.900Z,12.89
2023-04-23T01:41:47.569Z,12.74
2023-04-23T01:44:14.020Z,12.69
2023-04-23T01:46:40.660Z,12.74
2023-04-23T01:49:07.317Z,12.71
2023-04-23T01:51:33.805Z,12.57
2023-04-23T01:54:00.252Z,12.62
2023-04-23T01:56:28.109Z,12.59
2023-04-23T01:58:54.779Z,12.59
2023-04-23T02:01:21.861Z,12.39
2023-04-23T02:03:50.374Z,12.54
2023-04-23T02:06:17.408Z,12.60
2023-04-23T02:08:43.868Z,12.52
2023-04-23T02:11:10.305Z,12.49
2023-04-23T02:13:36.844Z,12.39
2023-04-23T02:16:03.372Z,12.45
2023-04-23T02:18:29.882Z,12.43
2023-04-23T02:20:57.400Z,12.52
2023-04-23T02:23:24.341Z,12.43
2023-04-23T02:25:52.189Z,12.42
2023-04-23T02:28:18.711Z,12.54
2023-04-23T02:30:47.793Z,12.46
2023-04-23T02:33:14.335Z,12.35
2023-04-23T02:35:40.910Z,12.37
2023-04-23T02:38:07.839Z,12.44
2023-04-23T02:40:34.364Z,12.40
2023-04-23T02:43:01.151Z,12.29
2023-04-23T02:45:27.583Z,12.33
2023-04-23T02:47:54.095Z,12.35
2023-04-23T02:50:20.698Z,12.31
2023-04-23T02:52:48.267Z,12.35
2023-04-23T02:55:14.882Z,12.06
2023-04-23T02:57:41.401Z,12.02
2023-04-23T03:00:09.132Z,12.09
2023-04-23T03:02:40.986Z,12.19
2023-04-23T03:05:08.260Z,12.15
2023-04-23T03:07:34.718Z,12.22
2023-04-23T03:10:01.151Z,12.20
2023-04-23T03:12:27.940Z,12.24
2023-04-23T03:14:54.794Z,12.25
2023-04-23T03:17:22.644Z,12.19
2023-04-23T03:19:49.407Z,12.13
2023-04-23T03:22:16.081Z,12.03
2023-04-23T03:24:42.756Z,12.03
2023-04-23T03:27:09.454Z,12.10
2023-04-23T03:29:36.197Z,12.17
2023-04-23T03:32:02.911Z,12.12
2023-04-23T03:34:30.120Z,12.16
2023-04-23T03:36:56.561Z,12.16
2023-04-23T03:39:23.191Z,12.07
2023-04-23T03:41:52.943Z,12.16
2023-04-23T03:44:23.523Z,12.11
2023-04-23T03:46:50.123Z,12.05
2023-04-23T03:49:17.136Z,12.21
2023-04-23T03:51:44.330Z,12.25
2023-04-23T03:54:11.257Z,12.23
2023-04-23T03:56:57.654Z,12.20
2023-04-23T03:59:28.002Z,12.22
2023-04-23T04:01:58.493Z,12.15
2023-04-23T04:04:26.084Z,12.12
2023-04-23T04:06:54.450Z,12.13
2023-04-23T04:09:25.342Z,12.06
2023-04-23T04:11:53.994Z,12.24
2023-04-23T04:14:21.168Z,12.09
2023-04-23T04:16:47.607Z,12.15
2023-04-23T04:19:14.311Z,12.19
2023-04-23T04:21:40.764Z,12.08
2023-04-23T04:24:07.665Z,11.98
2023-04-23T04:26:34.360Z,11.93
2023-04-23T04:29:01.604Z,11.99
2023-04-23T04:31:28.703Z,11.89
2023-04-23T04:33:55.578Z,11.82
2023-04-23T04:36:25.278Z,11.82
2023-04-23T04:39:00.810Z,11.83
2023-04-23T04:41:27.732Z,11.66
2023-04-23T04:43:58.539Z,11.64
2023-04-23T04:46:29.308Z,11.61
2023-04-23T04:48:55.907Z,11.65
2023-04-23T04:51:22.865Z,11.66
2023-04-23T04:53:49.321Z,11.62
2023-04-23T04:56:15.801Z,11.47
2023-04-23T04:58:44.727Z,11.44
2023-04-23T05:01:14.509Z,11.60
2023-04-23T05:03:41.281Z,11.50
2023-04-23T05:06:07.828Z,11.63
2023-04-23T05:08:34.274Z,11.52
2023-04-23T05:11:01.697Z,11.45
2023-04-23T05:13:28.145Z,11.38
2023-04-23T05:15:59.976Z,11.45
2023-04-23T05:18:26.501Z,11.40
2023-04-23T05:20:53.246Z,11.47
2023-04-23T05:23:19.697Z,11.41
2023-04-23T05:25:46.128Z,11.40
2023-04-23T05:28:12.556Z,11.44
2023-04-23T05:30:39.456Z,11.52
2023-04-23T05:33:05.997Z,11.34
2023-04-23T05:35:32.508Z,11.41
2023-04-23T05:37:59.818Z,11.50
2023-04-23T05:40:26.236Z,11.49
2023-04-23T05:42:52.677Z,11.47
2023-04-23T05:45:20.279Z,11.41
2023-04-23T05:47:46.801Z,11.38
2023-04-23T05:50:13.319Z,11.49
2023-04-23T05:52:39.891Z,11.36
2023-04-23T05:55:08.076Z,11.35
2023-04-23T05:57:37.412Z,11.33
2023-04-23T06:00:06.092Z,11.37
2023-04-23T06:02:39.852Z,11.39
2023-04-23T06:05:07.997Z,11.33
2023-04-23T06:07:34.841Z,11.21
2023-04-23T06:10:01.510Z,11.14
2023-04-23T06:12:28.013Z,11.03
2023-04-23T06:14:54.742Z,10.96
2023-04-23T06:17:21.173Z,11.07
2023-04-23T06:19:47.725Z,11.17
2023-04-23T06:22:14.141Z,11.12
2023-04-23T06:24:40.831Z,10.99
2023-04-23T06:27:07.540Z,11.03
2023-04-23T06:29:37.553Z,10.88
2023-04-23T06:32:05.339Z,11.18
2023-04-23T06:34:31.939Z,11.19
2023-04-23T06:36:58.454Z,11.12
2023-04-23T06:39:25.311Z,11.03
2023-04-23T06:41:51.772Z,11.09
2023-04-23T06:44:43.952Z,11.07
2023-04-23T06:47:10.696Z,11.02
2023-04-23T06:49:37.175Z,11.05
2023-04-23T06:52:03.633Z,10.93
2023-04-23T06:54:30.093Z,11.06
2023-04-23T06:56:57.373Z,11.00
2023-04-23T06:59:23.848Z,10.92
2023-04-23T07:01:53.876Z,11.00
2023-04-23T07:04:20.411Z,10.97
2023-04-23T07:06:46.880Z,10.96
2023-04-23T07:09:13.509Z,10.93
2023-04-23T07:11:40.401Z,11.12
2023-04-23T07:14:06.925Z,11.03
2023-04-23T07:16:33.998Z,11.07
2023-04-23T07:19:02.200Z,11.24
2023-04-23T07:21:29.060Z,11.28
2023-04-23T07:23:57.101Z,11.29
2023-04-23T07:26:25.085Z,11.22
2023-04-23T07:28:52.780Z,11.20
2023-04-23T07:31:20.630Z,11.25
2023-04-23T07:33:47.716Z,11.25
2023-04-23T07:36:14.421Z,11.25
2023-04-23T07:38:41.239Z,11.38
2023-04-23T07:41:07.724Z,11.34
2023-04-23T07:43:34.631Z,11.45
2023-04-23T07:46:01.194Z,11.32
2023-04-23T07:48:27.867Z,11.34
2023-04-23T07:50:54.375Z,11.25
2023-04-23T07:53:21.473Z,11.25
2023-04-23T07:55:48.001Z,11.20
2023-04-23T07:58:14.428Z,11.18
2023-04-23T08:00:40.915Z,11.31
2023-04-23T08:03:07.512Z,11.44
2023-04-23T08:05:34.384Z,11.32
2023-04-23T08:08:00.904Z,11.35
2023-04-23T08:10:27.397Z,11.27
2023-04-23T08:12:53.980Z,11.27
2023-04-23T08:15:20.456Z,11.27
2023-04-23T08:17:46.898Z,11.30
2023-04-23T08:20:13.425Z,11.29
2023-04-23T08:22:39.979Z,11.43
2023-04-23T08:25:06.812Z,11.34
2023-04-23T08:27:34.190Z,11.38
2023-04-23T08:30:00.766Z,11.33
2023-04-23T08:32:29.704Z,11.37
2023-04-23T08:34:56.284Z,11.45
2023-04-23T08:37:30.285Z,11.33
2023-04-23T08:39:57.588Z,11.60
2023-04-23T08:42:30.458Z,11.81
2023-04-23T08:44:57.575Z,12.27
2023-04-23T08:47:25.289Z,12.15
2023-04-23T08:49:54.577Z,12.29
2023-04-23T08:52:25.528Z,12.21
2023-04-23T08:55:00.008Z,12.34
2023-04-23T08:57:27.309Z,12.26
2023-04-23T08:59:55.283Z,12.20
2023-04-23T09:02:23.091Z,12.23
2023-04-23T09:04:51.801Z,12.29
2023-04-23T09:07:19.271Z,12.34
2023-04-23T09:09:45.818Z,12.49
2023-04-23T09:12:14.108Z,12.52
2023-04-23T09:14:41.213Z,12.61
2023-04-23T09:17:07.922Z,12.67
2023-04-23T09:19:36.163Z,12.81
2023-04-23T09:22:03.111Z,13.06
2023-04-23T09:24:30.648Z,13.18
2023-04-23T09:26:58.608Z,13.11
2023-04-23T09:29:26.998Z,13.18
2023-04-23T09:32:09.634Z,13.24
2023-04-23T09:34:41.337Z,13.22
2023-04-23T09:37:08.088Z,13.25
2023-04-23T09:39:35.996Z,13.24
2023-04-23T09:42:05.550Z,13.28
2023-04-23T09:44:33.661Z,13.30
2023-04-23T09:47:12.422Z,13.43
2023-04-23T09:49:47.889Z,13.44
2023-04-23T09:52:15.223Z,13.45
2023-04-23T09:54:43.098Z,13.48
2023-04-23T09:57:11.780Z,13.36
2023-04-23T09:59:48.500Z,13.29
2023-04-23T10:02:18.911Z,13.31
2023-04-23T10:04:52.331Z,13.41
2023-04-23T10:07:22.856Z,13.51
2023-04-23T10:09:49.384Z,13.56
2023-04-23T10:12:35.684Z,13.66
2023-04-23T10:15:08.040Z,13.75
2023-04-23T10:17:38.954Z,13.78
2023-04-23T10:20:07.241Z,13.84
2023-04-23T10:22:35.600Z,13.89
2023-04-23T10:25:09.320Z,13.76
2023-04-23T10:27:52.085Z,13.85
2023-04-23T10:30:21.518Z,13.86
2023-04-23T10:32:49.630Z,13.91
2023-04-23T10:35:16.475Z,13.97
2023-04-23T10:37:45.824Z,13.98
2023-04-23T10:40:15.036Z,14.12
2023-04-23T10:42:44.081Z,14.12
2023-04-23T10:45:24.047Z,14.19
2023-04-23T10:47:53.966Z,14.43
2023-04-23T10:50:31.078Z,14.27
2023-04-23T10:52:58.705Z,14.26
2023-04-23T10:55:27.924Z,14.40
2023-04-23T10:58:05.799Z,14.72
2023-04-23T11:00:41.699Z,15.02
2023-04-23T11:03:34.249Z,15.01
2023-04-23T11:06:07.304Z,15.20
2023-04-23T11:08:35.885Z,15.31
2023-04-23T11:11:07.366Z,15.22
2023-04-23T11:13:34.016Z,15.11
2023-04-23T11:16:23.227Z,15.35
2023-04-23T11:19:08.098Z,15.26
2023-04-23T11:21:59.954Z,15.53
2023-04-23T11:24:43.057Z,15.30
2023-04-23T11:27:12.063Z,15.44
2023-04-23T11:29:40.633Z,15.26
2023-04-23T11:32:12.914Z,15.22
2023-04-23T11:34:41.738Z,15.20
2023-04-23T11:37:11.080Z,15.43
2023-04-23T11:39:38.575Z,15.54
2023-04-23T11:42:05.113Z,15.57
2023-04-23T11:44:31.771Z,15.61
2023-04-23T11:47:04.437Z,15.83
2023-04-23T11:49:31.175Z,16.02
2023-04-23T11:52:01.384Z,16.01
2023-04-23T11:54:29.568Z,16.09
2023-04-23T11:56:58.147Z,15.75
2023-04-23T11:59:24.793Z,15.69
2023-04-23T12:01:55.357Z,15.78
2023-04-23T12:04:24.312Z,15.83
2023-04-23T12:06:52.375Z,15.96
2023-04-23T12:09:21.465Z,15.95
2023-04-23T12:11:50.762Z,15.76
2023-04-23T12:14:20.769Z,15.53
2023-04-23T12:16:52.031Z,15.44
2023-04-23T12:19:27.035Z,15.45
2023-04-23T12:21:55.161Z,15.57
2023-04-23T12:24:26.668Z,15.70
2023-04-23T12:26:54.713Z,15.73
2023-04-23T12:29:22.990Z,15.61
2023-04-23T12:31:52.126Z,15.59
2023-04-23T12:34:20.463Z,15.61
2023-04-23T12:36:49.773Z,15.57
2023-04-23T12:39:33.977Z,15.55
2023-04-23T12:42:08.260Z,15.59
2023-04-23T12:44:35.978Z,15.71
2023-04-23T12:47:15.306Z,15.84
2023-04-23T12:49:43.203Z,15.94
2023-04-23T12:52:12.130Z,16.10
2023-04-23T12:54:40.464Z,16.08
2023-04-23T12:57:11.017Z,16.08
2023-04-23T12:59:38.218Z,16.12
2023-04-23T13:02:06.830Z,16.04
2023-04-23T13:04:34.759Z,15.91
2023-04-23T13:07:01.749Z,15.93
2023-04-23T13:09:29.173Z,15.85
2023-04-23T13:11:55.957Z,15.99
2023-04-23T13:14:22.523Z,15.94
2023-04-23T13:16:49.415Z,15.84
2023-04-23T13:19:17.372Z,15.89
2023-04-23T13:21:44.706Z,16.06
2023-04-23T13:24:11.342Z,16.12
2023-04-23T13:26:37.992Z,16.09
2023-04-23T13:29:04.853Z,16.15
2023-04-23T13:31:31.657Z,16.29
2023-04-23T13:33:58.475Z,16.48
2023-04-23T13:36:25.247Z,16.37
2023-04-23T13:38:52.199Z,16.44
2023-04-23T13:41:18.686Z,16.45
2023-04-23T13:43:45.349Z,16.53
2023-04-23T13:46:12.155Z,16.53
2023-04-23T13:48:38.710Z,16.65
2023-04-23T13:51:16.926Z,16.55
2023-04-23T13:53:53.120Z,16.50
2023-04-23T13:56:19.820Z,16.47
2023-04-23T13:58:48.313Z,16.47
2023-04-23T14:01:16.081Z,16.42
2023-04-23T14:03:42.601Z,16.39
2023-04-23T14:06:09.131Z,16.45
2023-04-23T14:08:38.636Z,16.43
2023-04-23T14:11:06.717Z,16.48
2023-04-23T14:13:33.421Z,16.48
2023-04-23T14:16:02.131Z,16.53
2023-04-23T14:18:30.306Z,16.47
2023-04-23T14:20:56.971Z,16.60
2023-04-23T14:23:23.441Z,16.57
2023-04-23T14:25:58.981Z,16.65
2023-04-23T14:28:45.195Z,16.61
2023-04-23T14:31:11.790Z,16.51
2023-04-23T14:33:38.281Z,16.55
2023-04-23T14:36:04.923Z,16.31
2023-04-23T14:38:31.539Z,16.32
2023-04-23T14:40:58.057Z,16.26
2023-04-23T14:43:24.557Z,16.34
2023-04-23T14:45:51.948Z,16.31
2023-04-23T14:48:18.608Z,16.35
2023-04-23T14:50:45.812Z,16.31
2023-04-23T14:53:12.279Z,16.44
2023-04-23T14:55:42.658Z,16.39
2023-04-23T14:58:09.268Z,16.48
2023-04-23T15:00:36.000Z,16.56
2023-04-23T15:03:06.971Z,16.51
2023-04-23T15:05:33.607Z,16.53
2023-04-23T15:08:00.106Z,16.42
2023-04-23T15:10:26.753Z,16.40
2023-04-23T15:12:53.295Z,16.42
2023-04-23T15:15:36.922Z,16.50
2023-04-23T15:18:07.761Z,16.32
2023-04-23T15:20:34.366Z,16.58
2023-04-23T15:23:00.911Z,16.59
2023-04-23T15:25:27.833Z,16.61
2023-04-23T15:27:57.790Z,16.61
2023-04-23T15:30:26.117Z,16.51
2023-04-23T15:32:55.396Z,16.66
2023-04-23T15:35:26.148Z,16.78
2023-04-23T15:37:54.433Z,16.64
2023-04-23T15:40:20.960Z,16.32
2023-04-23T15:42:49.454Z,16.68
2023-04-23T15:45:16.981Z,16.36
2023-04-23T15:48:12.850Z,16.77
2023-04-23T15:50:39.414Z,16.77
2023-04-23T15:53:07.270Z,16.69
2023-04-23T15:55:34.987Z,16.48
2023-04-23T15:58:07.706Z,16.76
2023-04-23T16:00:34.634Z,16.81
2023-04-23T16:03:01.491Z,16.48
2023-04-23T16:05:29.950Z,16.75
2023-04-23T16:07:56.499Z,16.26
2023-04-23T16:10:23.168Z,16.55
2023-04-23T16:12:50.600Z,16.09
2023-04-23T16:15:17.151Z,15.76
2023-04-23T16:17:43.741Z,15.94
2023-04-23T16:20:11.648Z,16.04
2023-04-23T16:22:38.337Z,15.73
2023-04-23T16:25:06.273Z,15.71
2023-04-23T16:27:33.096Z,16.01
2023-04-23T16:29:59.679Z,16.10
2023-04-23T16:32:26.399Z,15.67
2023-04-23T16:34:52.880Z,16.29
2023-04-23T16:37:23.417Z,16.25
2023-04-23T16:39:49.926Z,16.26
2023-04-23T16:42:16.413Z,15.98
2023-04-23T16:44:43.158Z,15.71
2023-04-23T16:47:10.175Z,15.27
2023-04-23T16:49:36.698Z,15.64
2023-04-23T16:52:03.770Z,15.84
2023-04-23T16:54:31.759Z,15.69
2023-04-23T16:56:58.220Z,15.32
2023-04-23T16:59:24.716Z,15.65
2023-04-23T17:01:51.497Z,15.78
2023-04-23T17:04:18.745Z,15.28
2023-04-23T17:06:45.484Z,15.17
2023-04-23T17:09:12.092Z,15.54
2023-04-23T17:11:38.604Z,15.80
2023-04-23T17:14:05.199Z,15.66
2023-04-23T17:16:31.767Z,15.45
2023-04-23T17:18:58.284Z,15.39
2023-04-23T17:21:24.997Z,15.42
2023-04-23T17:23:51.533Z,15.44
2023-04-23T17:26:19.137Z,15.27
2023-04-23T17:28:46.068Z,15.36
2023-04-23T17:31:12.952Z,15.19
2023-04-23T17:33:39.710Z,15.08
2023-04-23T17:36:06.317Z,15.14
2023-04-23T17:38:32.818Z,15.04
2023-04-23T17:40:59.364Z,14.91
2023-04-23T17:43:31.580Z,14.88
2023-04-23T17:45:58.091Z,14.92
2023-04-23T17:48:25.274Z,14.79
2023-04-23T17:50:51.823Z,14.85
2023-04-23T17:53:20.589Z,14.79
2023-04-23T17:55:47.217Z,14.68
2023-04-23T17:58:13.819Z,14.80
2023-04-23T18:00:42.191Z,14.78
2023-04-23T18:03:09.855Z,14.68
2023-04-23T18:05:36.689Z,14.80
2023-04-23T18:08:03.356Z,14.70
2023-04-23T18:10:29.928Z,14.67
2023-04-23T18:12:56.560Z,14.78
2023-04-23T18:15:23.098Z,14.60
2023-04-23T18:17:50.312Z,14.60
2023-04-23T18:20:16.846Z,14.62
2023-04-23T18:22:44.320Z,14.57
2023-04-23T18:25:11.515Z,14.54
2023-04-23T18:27:38.353Z,14.68
2023-04-23T18:30:08.935Z,14.52
2023-04-23T18:32:40.109Z,14.57
2023-04-23T18:35:08.152Z,14.57
2023-04-23T18:37:44.003Z,14.49
2023-04-23T18:40:11.473Z,14.37
2023-04-23T18:42:38.263Z,14.37
2023-04-23T18:45:05.115Z,14.33
2023-04-23T18:47:36.749Z,14.23
2023-04-23T18:50:09.097Z,14.15
2023-04-23T18:52:36.240Z,14.18
2023-04-23T18:55:03.162Z,13.74
2023-04-23T18:57:29.613Z,12.90
2023-04-23T18:59:56.383Z,12.53
2023-04-23T19:02:34.416Z,12.22
2023-04-23T19:05:02.355Z,11.79
2023-04-23T19:07:28.831Z,11.64
2023-04-23T19:09:55.520Z,11.47
2023-04-23T19:12:22.171Z,11.26
2023-04-23T19:14:48.591Z,11.17
2023-04-23T19:17:18.026Z,11.02
2023-04-23T19:19:45.288Z,10.92
2023-04-23T19:22:11.756Z,10.71
2023-04-23T19:24:38.161Z,10.78
2023-04-23T19:27:06.665Z,10.89
2023-04-23T19:29:33.230Z,10.91
2023-04-23T19:31:59.689Z,10.83
2023-04-23T19:34:26.371Z,10.69
2023-04-23T19:36:52.784Z,10.78
2023-04-23T19:39:19.233Z,10.70
2023-04-23T19:41:45.906Z,10.64
2023-04-23T19:44:12.340Z,10.59
2023-04-23T19:46:38.827Z,10.47
2023-04-23T19:49:05.329Z,10.77
2023-04-23T19:51:35.254Z,10.77
2023-04-23T19:54:02.465Z,10.75
2023-04-23T19:56:28.951Z,10.81
2023-04-23T19:58:55.682Z,10.70
2023-04-23T20:01:22.501Z,10.73
2023-04-23T20:03:50.859Z,10.64
2023-04-23T20:06:17.494Z,10.74
2023-04-23T20:09:03.896Z,10.76
2023-04-23T20:11:30.806Z,10.63
2023-04-23T20:13:57.346Z,10.70
2023-04-23T20:16:24.321Z,10.64
2023-04-23T20:18:50.815Z,10.66
2023-04-23T20:21:17.325Z,10.34
2023-04-23T20:23:43.778Z,10.45
2023-04-23T20:26:10.259Z,10.58
2023-04-23T20:28:37.088Z,10.65
2023-04-23T20:31:03.689Z,10.47
2023-04-23T20:33:30.967Z,10.48
2023-04-23T20:35:58.761Z,10.46
2023-04-23T20:38:30.708Z,10.45
2023-04-23T20:41:02.273Z,10.53
2023-04-23T20:43:29.674Z,10.67
2023-04-23T20:45:56.627Z,10.66
2023-04-23T20:48:25.710Z,10.58
2023-04-23T20:50:52.518Z,10.64
2023-04-23T20:53:18.945Z,10.60
2023-04-23T20:55:45.386Z,10.70
2023-04-23T20:58:11.907Z,10.76
2023-04-23T21:00:38.450Z,10.76
2023-04-23T21:03:06.038Z,10.91
2023-04-23T21:05:32.640Z,10.79
2023-04-23T21:07:59.158Z,10.81
2023-04-23T21:10:25.709Z,10.93
2023-04-23T21:12:52.333Z,10.71
2023-04-23T21:15:18.989Z,10.93
2023-04-23T21:17:45.562Z,10.92
2023-04-23T21:20:12.030Z,10.89
2023-04-23T21:22:38.565Z,10.87
2023-04-23T21:25:05.515Z,10.88
2023-04-23T21:27:32.083Z,10.78
2023-04-23T21:30:03.265Z,10.75
2023-04-23T21:32:41.013Z,10.86
2023-04-23T21:35:08.099Z,10.94
2023-04-23T21:37:37.273Z,10.90
2023-04-23T21:40:04.810Z,10.84
2023-04-23T21:42:31.436Z,10.95
2023-04-23T21:44:57.932Z,10.92
2023-04-23T21:47:24.400Z,10.81
2023-04-23T21:49:51.105Z,10.87
2023-04-23T21:52:17.822Z,10.93
2023-04-23T21:54:44.293Z,10.88
2023-04-23T21:57:10.766Z,10.83
2023-04-23T21:59:37.373Z,10.79
2023-04-23T22:02:04.078Z,10.89
2023-04-23T22:04:31.223Z,10.85
2023-04-23T22:07:03.400Z,10.88
2023-04-23T22:09:30.114Z,10.85
2023-04-23T22:14:27.411Z,10.92
2023-04-23T22:16:55.055Z,10.97
2023-04-23T22:19:21.685Z,10.85
2023-04-23T22:21:48.172Z,10.82
2023-04-23T22:24:14.650Z,10.77
2023-04-23T22:26:41.191Z,10.77
2023-04-23T22:29:08.788Z,10.76
2023-04-23T22:31:35.450Z,10.84
2023-04-23T22:34:02.031Z,10.71
2023-04-23T22:36:28.877Z,10.68
2023-04-23T22:38:56.199Z,10.78
2023-04-23T22:41:22.745Z,10.76
2023-04-23T22:43:49.460Z,10.73
2023-04-23T22:46:16.415Z,10.72
2023-04-23T22:48:44.960Z,10.70
2023-04-23T22:51:11.930Z,10.58
2023-04-23T22:53:38.552Z,10.58
2023-04-23T22:56:05.190Z,10.63
2023-04-23T22:58:31.769Z,10.51
2023-04-23T23:00:58.326Z,10.46
2023-04-23T23:03:25.720Z,10.47
2023-04-23T23:05:52.350Z,10.49
2023-04-23T23:08:18.830Z,10.56
2023-04-23T23:10:45.476Z,10.48
2023-04-23T23:13:11.973Z,10.36
2023-04-23T23:15:38.543Z,10.28
2023-04-23T23:18:06.001Z,10.23
2023-04-23T23:20:32.616Z,10.28
2023-04-23T23:22:59.109Z,10.23
2023-04-23T23:25:25.667Z,10.18
2023-04-23T23:27:52.185Z,10.22
2023-04-23T23:30:18.894Z,10.25
2023-04-23T23:32:46.126Z,10.24
2023-04-23T23:35:12.675Z,10.14
2023-04-23T23:37:39.161Z,10.17
2023-04-23T23:40:07.114Z,10.11
2023-04-23T23:42:33.607Z,10.09
2023-04-23T23:45:00.212Z,10.01
2023-04-23T23:47:26.948Z,9.99
2023-04-23T23:49:53.520Z,9.97
2023-04-23T23:52:20.141Z,10.00
2023-04-23T23:54:47.020Z,10.07
2023-04-23T23:57:13.515Z,9.96
2023-04-23T23:59:40.048Z,9.94
